createdAt,value
2022-10-17T00:00:21.454Z,68.7143
2022-10-17T00:01:21.552Z,68.7857
2022-10-17T00:02:21.520Z,68.8571
2022-10-17T00:03:21.544Z,68.8571
2022-10-17T00:04:21.609Z,68.7857
2022-10-17T00:05:21.607Z,68.7857
2022-10-17T00:06:21.633Z,69
2022-10-17T00:07:21.671Z,69.2143
2022-10-17T00:08:21.703Z,69.1429
2022-10-17T00:09:21.732Z,68.9286
2022-10-17T00:10:21.762Z,68.8571
2022-10-17T00:11:21.793Z,68.8571
2022-10-17T00:12:21.832Z,69
2022-10-17T00:13:21.905Z,69.0714
2022-10-17T00:14:21.916Z,69.0714
2022-10-17T00:15:21.935Z,69.0714
2022-10-17T00:16:21.975Z,69.0714
2022-10-17T00:17:22.003Z,69.0714
2022-10-17T00:18:22.041Z,69.0714
2022-10-17T00:19:22.065Z,69.0714
2022-10-17T00:20:22.103Z,69.0714
2022-10-17T00:21:22.141Z,69.1429
2022-10-17T00:22:22.178Z,69.2143
2022-10-17T00:23:22.206Z,69.2857
2022-10-17T00:24:22.235Z,69.2857
2022-10-17T00:25:22.267Z,69.2143
2022-10-17T00:26:22.305Z,69.1429
2022-10-17T00:27:22.340Z,69.1429
2022-10-17T00:28:22.425Z,69.0714
2022-10-17T00:29:22.401Z,69.0714
2022-10-17T00:30:22.431Z,69.0714
2022-10-17T00:31:22.468Z,69.0714
2022-10-17T00:32:22.503Z,69.1429
2022-10-17T00:33:22.541Z,69.2143
2022-10-17T00:34:22.577Z,69.2143
2022-10-17T00:35:22.611Z,69.2143
2022-10-17T00:36:22.643Z,69.2857
2022-10-17T00:37:22.673Z,69.2857
2022-10-17T00:38:22.700Z,69.3571
2022-10-17T00:39:22.722Z,69.3571
2022-10-17T00:40:22.761Z,69.3571
2022-10-17T00:41:22.789Z,69.3571
2022-10-17T00:42:22.832Z,69.3571
2022-10-17T00:43:22.864Z,69.4286
2022-10-17T00:44:22.902Z,69.3571
2022-10-17T00:45:22.942Z,69.2143
2022-10-17T00:46:22.981Z,69.1429
2022-10-17T00:47:23.017Z,69.0714
2022-10-17T00:48:23.404Z,69.0714
2022-10-17T00:49:23.089Z,69.1429
2022-10-17T00:50:23.110Z,69.1429
2022-10-17T00:51:23.145Z,69.1429
2022-10-17T00:52:23.176Z,69.3571
2022-10-17T00:53:23.211Z,69.4286
2022-10-17T00:54:23.240Z,69.4286
2022-10-17T00:55:23.271Z,69.3571
2022-10-17T00:56:23.305Z,69.2857
2022-10-17T00:57:23.340Z,69.2143
2022-10-17T00:58:23.378Z,69.2857
2022-10-17T00:59:23.416Z,69.3571
2022-10-17T01:00:23.450Z,69.4286
2022-10-17T01:01:23.557Z,69.4286
2022-10-17T01:02:23.521Z,69.4286
2022-10-17T01:03:23.553Z,69.4286
2022-10-17T01:04:23.579Z,69.5
2022-10-17T01:05:23.616Z,69.4286
2022-10-17T01:06:23.644Z,69.4286
2022-10-17T01:07:23.673Z,69.3571
2022-10-17T01:08:23.708Z,69.3571
2022-10-17T01:09:23.737Z,69.3571
2022-10-17T01:11:23.799Z,69.3571
2022-10-17T01:12:23.826Z,69.3571
2022-10-17T01:13:23.870Z,69.4286
2022-10-17T01:14:23.893Z,69.4286
2022-10-17T01:15:23.925Z,69.5
2022-10-17T01:16:23.954Z,69.4286
2022-10-17T01:17:24.009Z,69.4286
2022-10-17T01:18:24.028Z,69.3571
2022-10-17T01:20:24.095Z,69.3571
2022-10-17T01:21:24.129Z,69.4286
2022-10-17T01:22:24.168Z,69.3571
2022-10-17T01:23:24.201Z,69.3571
2022-10-17T01:24:24.227Z,69.3571
2022-10-17T01:25:24.261Z,69.3571
2022-10-17T01:26:24.296Z,69.2143
2022-10-17T01:27:24.334Z,69
2022-10-17T01:28:24.514Z,68.9286
2022-10-17T01:29:24.399Z,69.0714
2022-10-17T01:30:24.447Z,69.2143
2022-10-17T01:31:24.474Z,69.2857
2022-10-17T01:32:24.591Z,69.3571
2022-10-17T01:33:24.541Z,69.4286
2022-10-17T01:34:24.568Z,69.5
2022-10-17T01:35:24.598Z,69.5
2022-10-17T01:36:24.631Z,69.5
2022-10-17T01:37:24.665Z,69.5714
2022-10-17T01:38:24.703Z,69.4286
2022-10-17T01:39:26.894Z,69.4286
2022-10-17T01:40:24.772Z,69.5
2022-10-17T01:41:24.808Z,69.5714
2022-10-17T01:42:25.111Z,69.6429
2022-10-17T01:43:24.878Z,69.5714
2022-10-17T01:44:24.913Z,69.5
2022-10-17T01:45:24.944Z,69.5714
2022-10-17T01:46:24.974Z,69.4286
2022-10-17T01:47:25.316Z,69.2857
2022-10-17T01:48:25.049Z,69.2143
2022-10-17T01:49:25.085Z,69.2857
2022-10-17T01:50:25.120Z,69.3571
2022-10-17T01:51:25.148Z,69.0714
2022-10-17T01:52:25.174Z,69.0714
2022-10-17T01:53:25.208Z,69.1429
2022-10-17T01:54:25.247Z,69.4286
2022-10-17T01:55:25.266Z,69.4286
2022-10-17T01:56:25.308Z,69.5
2022-10-17T01:57:25.598Z,69.4286
2022-10-17T01:58:25.382Z,69.4286
2022-10-17T01:59:25.417Z,69.2857
2022-10-17T02:00:25.451Z,69.2143
2022-10-17T02:01:25.579Z,69.2143
2022-10-17T02:02:25.524Z,69.2143
2022-10-17T02:03:25.560Z,69.0714
2022-10-17T02:04:25.590Z,69
2022-10-17T02:05:25.633Z,68.8571
2022-10-17T02:06:25.660Z,68.7857
2022-10-17T02:07:26.059Z,68.8571
2022-10-17T02:08:25.723Z,68.8571
2022-10-17T02:09:25.745Z,69
2022-10-17T02:10:25.792Z,69.1429
2022-10-17T02:11:25.826Z,69.2143
2022-10-17T02:12:25.856Z,69.4286
2022-10-17T02:13:25.896Z,69.5714
2022-10-17T02:14:25.922Z,69.5714
2022-10-17T02:15:25.952Z,69.5714
2022-10-17T02:16:25.989Z,69.6429
2022-10-17T02:17:26.420Z,69.7143
2022-10-17T02:18:26.061Z,69.7143
2022-10-17T02:19:26.083Z,69.7143
2022-10-17T02:20:26.115Z,70
2022-10-17T02:21:26.143Z,70.1429
2022-10-17T02:22:26.173Z,70.2143
2022-10-17T02:23:26.216Z,70.2857
2022-10-17T02:24:26.242Z,70.2857
2022-10-17T02:25:26.278Z,70.2857
2022-10-17T02:26:26.307Z,70.4286
2022-10-17T02:27:26.729Z,70.4286
2022-10-17T02:28:26.420Z,70.5
2022-10-17T02:29:26.408Z,70.5714
2022-10-17T02:30:26.440Z,70.6429
2022-10-17T02:31:26.468Z,70.7143
2022-10-17T02:32:26.501Z,70.7143
2022-10-17T02:33:26.527Z,70.9286
2022-10-17T02:34:26.550Z,71
2022-10-17T02:35:26.583Z,71.0714
2022-10-17T02:36:26.614Z,71.0714
2022-10-17T02:37:26.977Z,71
2022-10-17T02:38:26.677Z,71
2022-10-17T02:39:26.701Z,71
2022-10-17T02:40:26.738Z,71
2022-10-17T02:41:26.770Z,71
2022-10-17T02:42:26.982Z,70.9286
2022-10-17T02:43:26.841Z,70.9286
2022-10-17T02:44:26.876Z,71
2022-10-17T02:45:26.910Z,71.1429
2022-10-17T02:46:26.942Z,71.2143
2022-10-17T02:47:26.975Z,71.2857
2022-10-17T02:48:27.011Z,71.5
2022-10-17T02:49:27.043Z,71.5714
2022-10-17T02:51:27.103Z,72.5714
2022-10-17T02:52:27.522Z,73.0714
2022-10-17T02:53:27.161Z,73.5
2022-10-17T02:54:27.187Z,73.9286
2022-10-17T02:55:27.227Z,74.3571
2022-10-17T02:56:27.260Z,74.7857
2022-10-17T02:57:27.291Z,75.2857
2022-10-17T02:58:27.324Z,75.5
2022-10-17T02:59:27.397Z,75.5714
2022-10-17T03:00:27.413Z,75.6429
2022-10-17T03:01:27.501Z,75.7143
2022-10-17T03:02:27.896Z,75.9286
2022-10-17T03:03:27.487Z,75.8571
2022-10-17T03:04:27.515Z,75.7857
2022-10-17T03:05:27.550Z,75.7143
2022-10-17T03:06:27.578Z,75.7143
2022-10-17T03:07:27.608Z,75.6429
2022-10-17T03:08:27.738Z,75.5714
2022-10-17T03:09:27.681Z,75.5
2022-10-17T03:10:27.714Z,75.4286
2022-10-17T03:11:27.745Z,75.3571
2022-10-17T03:12:28.270Z,75.3571
2022-10-17T03:13:27.815Z,75.2143
2022-10-17T03:14:27.848Z,75.0714
2022-10-17T03:15:27.875Z,74.9286
2022-10-17T03:16:27.908Z,74.7857
2022-10-17T03:17:27.946Z,74.6429
2022-10-17T03:18:27.973Z,74.5
2022-10-17T03:19:28.004Z,74.4286
2022-10-17T03:20:28.043Z,74.5
2022-10-17T03:21:28.074Z,74.7143
2022-10-17T03:22:28.507Z,74.7857
2022-10-17T03:23:28.148Z,74.7857
2022-10-17T03:24:28.185Z,74.7143
2022-10-17T03:25:28.220Z,74.8571
2022-10-17T03:26:28.255Z,75
2022-10-17T03:27:28.644Z,74.9286
2022-10-17T03:28:28.339Z,74.8571
2022-10-17T03:29:28.352Z,74.8571
2022-10-17T03:30:28.385Z,75
2022-10-17T03:31:28.414Z,75
2022-10-17T03:32:28.456Z,75.0714
2022-10-17T03:33:28.497Z,75.2143
2022-10-17T03:34:28.529Z,75.4286
2022-10-17T03:35:28.566Z,75.6429
2022-10-17T03:36:28.599Z,75.7857
2022-10-17T03:37:28.881Z,76.0714
2022-10-17T03:38:28.659Z,76.2143
2022-10-17T03:39:28.689Z,76.3571
2022-10-17T03:40:28.719Z,76.4286
2022-10-17T03:41:28.750Z,76.4286
2022-10-17T03:42:28.788Z,76.3571
2022-10-17T03:43:28.830Z,76.2143
2022-10-17T03:44:28.860Z,76.2143
2022-10-17T03:45:28.888Z,76.1429
2022-10-17T03:46:28.922Z,76.1429
2022-10-17T03:47:29.353Z,76.0714
2022-10-17T03:48:28.980Z,76
2022-10-17T03:49:29.019Z,76.0714
2022-10-17T03:50:29.055Z,76.0714
2022-10-17T03:51:29.081Z,76
2022-10-17T03:52:29.114Z,75.9286
2022-10-17T03:53:29.143Z,75.9286
2022-10-17T03:54:29.183Z,75.9286
2022-10-17T03:55:29.218Z,76
2022-10-17T03:56:29.247Z,76.0714
2022-10-17T03:57:29.476Z,76.0714
2022-10-17T03:58:32.358Z,76.0714
2022-10-17T03:59:29.359Z,76.0714
2022-10-17T04:00:29.394Z,76
2022-10-17T04:01:29.484Z,76.0714
2022-10-17T04:02:29.460Z,76.1429
2022-10-17T04:03:29.486Z,76.0714
2022-10-17T04:04:29.520Z,76
2022-10-17T04:05:29.546Z,75.9286
2022-10-17T04:06:29.580Z,75.8571
2022-10-17T04:07:29.617Z,75.8571
2022-10-17T04:08:29.646Z,75.8571
2022-10-17T04:09:29.683Z,75.8571
2022-10-17T04:10:29.708Z,75.7143
2022-10-17T04:11:29.753Z,75.7857
2022-10-17T04:12:30.001Z,75.7857
2022-10-17T04:13:29.810Z,75.7143
2022-10-17T04:14:29.850Z,75.5714
2022-10-17T04:15:29.880Z,75.5714
2022-10-17T04:16:29.908Z,75.5714
2022-10-17T04:17:33.286Z,75.5
2022-10-17T04:18:29.960Z,75.5
2022-10-17T04:19:29.997Z,75.5714
2022-10-17T04:20:30.034Z,75.5714
2022-10-17T04:21:30.065Z,75.5
2022-10-17T04:22:30.426Z,75.4286
2022-10-17T04:23:30.132Z,75.3571
2022-10-17T04:24:30.164Z,75.4286
2022-10-17T04:25:33.407Z,75.4286
2022-10-17T04:26:30.228Z,75.4286
2022-10-17T04:27:30.258Z,75.5
2022-10-17T04:28:30.424Z,75.5
2022-10-17T04:29:30.321Z,75.5714
2022-10-17T04:30:30.354Z,75.5
2022-10-17T04:31:30.391Z,75.5
2022-10-17T04:32:30.745Z,75.4286
2022-10-17T04:33:30.452Z,75.3571
2022-10-17T04:34:30.488Z,75.1429
2022-10-17T04:35:30.520Z,75.0714
2022-10-17T04:36:30.555Z,74.8571
2022-10-17T04:37:30.583Z,74.7857
2022-10-17T04:38:30.614Z,74.7143
2022-10-17T04:39:30.644Z,74.5714
2022-10-17T04:40:30.685Z,74.5
2022-10-17T04:41:30.714Z,74.5
2022-10-17T04:42:31.019Z,74.5
2022-10-17T04:43:30.781Z,74.5
2022-10-17T04:44:30.817Z,74.5714
2022-10-17T04:45:30.843Z,74.6429
2022-10-17T04:46:30.883Z,74.8571
2022-10-17T04:47:30.919Z,74.8571
2022-10-17T04:48:30.947Z,74.7857
2022-10-17T04:49:31.122Z,74.7143
2022-10-17T04:50:31.013Z,74.7143
2022-10-17T04:51:31.048Z,74.6429
2022-10-17T04:52:31.521Z,74.5714
2022-10-17T04:53:31.117Z,74.3571
2022-10-17T04:54:31.160Z,74.3571
2022-10-17T04:55:31.189Z,74.1429
2022-10-17T04:56:31.210Z,74.0714
2022-10-17T04:57:31.245Z,74
2022-10-17T04:58:31.278Z,74.1429
2022-10-17T04:59:31.313Z,74.1429
2022-10-17T05:00:31.355Z,74.0714
2022-10-17T05:01:31.373Z,73.9286
2022-10-17T05:02:31.754Z,73.9286
2022-10-17T05:03:31.452Z,74.0714
2022-10-17T05:04:31.482Z,74.1429
2022-10-17T05:05:31.508Z,74.2857
2022-10-17T05:06:31.556Z,74.3571
2022-10-17T05:07:31.582Z,74.2857
2022-10-17T05:08:31.610Z,74.2143
2022-10-17T05:09:31.642Z,74
2022-10-17T05:10:31.676Z,74
2022-10-17T05:11:31.701Z,74.1429
2022-10-17T05:12:32.096Z,74.2857
2022-10-17T05:13:31.766Z,74.3571
2022-10-17T05:14:31.791Z,74.4286
2022-10-17T05:15:31.827Z,74.4286
2022-10-17T05:16:31.863Z,74.2857
2022-10-17T05:17:31.894Z,74
2022-10-17T05:18:31.931Z,73.8571
2022-10-17T05:19:31.952Z,74.0714
2022-10-17T05:20:31.985Z,74.1429
2022-10-17T05:22:32.281Z,74.2857
2022-10-17T05:23:32.083Z,74.4286
2022-10-17T05:24:32.110Z,74.5
2022-10-17T05:25:32.147Z,74.5
2022-10-17T05:26:32.182Z,74.6429
2022-10-17T05:27:32.212Z,74.7143
2022-10-17T05:28:32.274Z,74.7143
2022-10-17T05:29:32.271Z,75.0714
2022-10-17T05:30:35.222Z,75
2022-10-17T05:31:32.343Z,75.1429
2022-10-17T05:32:32.604Z,75.3571
2022-10-17T05:33:32.411Z,75.7143
2022-10-17T05:34:32.446Z,76.0714
2022-10-17T05:35:32.477Z,76.2857
2022-10-17T05:36:32.508Z,76.4286
2022-10-17T05:37:32.545Z,76.5714
2022-10-17T05:38:32.576Z,76.5
2022-10-17T05:39:32.606Z,76.5714
2022-10-17T05:40:32.645Z,76.6429
2022-10-17T05:41:32.672Z,76.7143
2022-10-17T05:42:33.028Z,76.8571
2022-10-17T05:43:32.737Z,77
2022-10-17T05:44:32.772Z,77.0714
2022-10-17T05:45:32.807Z,77.1429
2022-10-17T05:46:32.835Z,77.0714
2022-10-17T05:47:33.125Z,77
2022-10-17T05:48:32.902Z,76.9286
2022-10-17T05:49:43.983Z,77
2022-10-17T05:50:32.970Z,77
2022-10-17T05:51:33.042Z,76.9286
2022-10-17T05:52:33.251Z,76.9286
2022-10-17T05:53:33.059Z,76.8571
2022-10-17T05:54:33.101Z,76.8571
2022-10-17T05:55:33.131Z,77.0714
2022-10-17T05:56:33.169Z,77.1429
2022-10-17T05:57:33.195Z,77.2143
2022-10-17T05:58:49.103Z,77.2143
2022-10-17T05:59:33.257Z,77.2857
2022-10-17T06:00:33.381Z,77.2857
2022-10-17T06:01:33.396Z,77.4286
2022-10-17T06:02:33.609Z,77.5
2022-10-17T06:03:33.386Z,77.5
2022-10-17T06:04:33.412Z,77.5
2022-10-17T06:05:33.443Z,77.5714
2022-10-17T06:06:33.478Z,77.5714
2022-10-17T06:07:33.503Z,77.6429
2022-10-17T06:08:33.531Z,77.5714
2022-10-17T06:09:33.598Z,77.6429
2022-10-17T06:10:33.599Z,77.5714
2022-10-17T06:11:33.633Z,77.5
2022-10-17T06:12:33.669Z,77.5714
2022-10-17T06:13:33.703Z,77.6429
2022-10-17T06:14:33.732Z,77.7143
2022-10-17T06:15:33.767Z,77.7857
2022-10-17T06:16:33.795Z,77.8571
2022-10-17T06:17:33.824Z,77.8571
2022-10-17T06:18:33.855Z,78
2022-10-17T06:19:33.886Z,78
2022-10-17T06:20:33.902Z,78.0714
2022-10-17T06:21:33.943Z,78.1429
2022-10-17T06:22:33.979Z,78.1429
2022-10-17T06:23:33.997Z,78.1429
2022-10-17T06:24:34.033Z,78.0714
2022-10-17T06:25:34.066Z,78
2022-10-17T06:26:34.094Z,78
2022-10-17T06:27:34.131Z,78.0714
2022-10-17T06:28:34.187Z,78
2022-10-17T06:29:34.198Z,78
2022-10-17T06:30:34.229Z,78
2022-10-17T06:31:34.265Z,77.9286
2022-10-17T06:32:34.295Z,77.9286
2022-10-17T06:33:34.321Z,77.9286
2022-10-17T06:34:34.351Z,77.8571
2022-10-17T06:35:34.387Z,77.7857
2022-10-17T06:36:34.418Z,77.7143
2022-10-17T06:37:36.547Z,77.7143
2022-10-17T06:38:34.482Z,77.6429
2022-10-17T06:39:34.511Z,77.6429
2022-10-17T06:40:34.540Z,77.5714
2022-10-17T06:41:34.575Z,77.5
2022-10-17T06:42:34.601Z,77.4286
2022-10-17T06:43:34.629Z,77.4286
2022-10-17T06:44:34.666Z,77.3571
2022-10-17T06:45:34.695Z,77.2857
2022-10-17T06:46:34.721Z,77.2143
2022-10-17T06:47:34.742Z,77.1429
2022-10-17T06:48:34.775Z,77.1429
2022-10-17T06:49:34.809Z,77.0714
2022-10-17T06:50:34.835Z,77
2022-10-17T06:51:34.868Z,76.9286
2022-10-17T06:52:34.897Z,76.8571
2022-10-17T06:53:34.931Z,76.8571
2022-10-17T06:54:34.964Z,76.7857
2022-10-17T06:55:34.995Z,76.7857
2022-10-17T06:56:35.023Z,76.7143
2022-10-17T06:57:35.048Z,76.6429
2022-10-17T06:58:35.084Z,76.5714
2022-10-17T06:59:35.112Z,76.5
2022-10-17T07:00:35.273Z,76.5
2022-10-17T07:01:35.180Z,76.4286
2022-10-17T07:02:35.249Z,76.3571
2022-10-17T07:03:35.237Z,76.2143
2022-10-17T07:04:35.277Z,76.1429
2022-10-17T07:05:35.311Z,76.0714
2022-10-17T07:06:35.341Z,76
2022-10-17T07:07:36.834Z,76
2022-10-17T07:08:35.403Z,75.8571
2022-10-17T07:09:35.437Z,75.8571
2022-10-17T07:10:35.470Z,75.7857
2022-10-17T07:11:35.496Z,75.7857
2022-10-17T07:12:35.524Z,75.7143
2022-10-17T07:13:38.850Z,75.7143
2022-10-17T07:14:35.585Z,75.6429
2022-10-17T07:15:35.616Z,75.5714
2022-10-17T07:16:35.651Z,75.5
2022-10-17T07:17:35.683Z,75.5714
2022-10-17T07:18:35.716Z,75.5
2022-10-17T07:19:35.756Z,75.5
2022-10-17T07:20:35.790Z,75.4286
2022-10-17T07:21:39.019Z,75.3571
2022-10-17T07:22:35.861Z,75.3571
2022-10-17T07:23:35.898Z,75.3571
2022-10-17T07:24:35.925Z,75.3571
2022-10-17T07:25:39.275Z,75.3571
2022-10-17T07:26:36.008Z,75.2857
2022-10-17T07:27:36.039Z,75.3571
2022-10-17T07:28:36.162Z,75.3571
2022-10-17T07:29:36.097Z,75.2857
2022-10-17T07:30:36.131Z,75.2857
2022-10-17T07:31:36.169Z,75.2143
2022-10-17T07:32:36.197Z,75.1429
2022-10-17T07:33:36.326Z,75.1429
2022-10-17T07:34:36.262Z,75.1429
2022-10-17T07:35:36.295Z,75.0714
2022-10-17T07:36:36.327Z,75
2022-10-17T07:37:36.373Z,75
2022-10-17T07:38:36.404Z,75.0714
2022-10-17T07:39:36.435Z,75
2022-10-17T07:40:36.470Z,75
2022-10-17T07:41:36.497Z,74.8571
2022-10-17T07:42:36.583Z,74.7857
2022-10-17T07:43:36.560Z,74.7857
2022-10-17T07:44:36.596Z,74.7143
2022-10-17T07:45:36.625Z,74.5
2022-10-17T07:46:36.653Z,74.4286
2022-10-17T07:47:36.688Z,74.3571
2022-10-17T07:48:36.721Z,74.2857
2022-10-17T07:49:36.751Z,74.2857
2022-10-17T07:50:36.782Z,74.2857
2022-10-17T07:51:36.874Z,74.2857
2022-10-17T07:52:36.838Z,74.2143
2022-10-17T07:53:36.871Z,74.2143
2022-10-17T07:54:36.896Z,74.1429
2022-10-17T07:55:36.931Z,74.0714
2022-10-17T07:56:36.965Z,74
2022-10-17T07:57:37.005Z,74
2022-10-17T07:58:37.028Z,74
2022-10-17T07:59:37.063Z,74.0714
2022-10-17T08:00:37.202Z,74
2022-10-17T08:01:37.123Z,73.9286
2022-10-17T08:02:37.159Z,74
2022-10-17T08:03:37.189Z,74
2022-10-17T08:04:37.216Z,73.9286
2022-10-17T08:05:37.248Z,73.8571
2022-10-17T08:06:37.276Z,73.7143
2022-10-17T08:07:37.311Z,73.5714
2022-10-17T08:08:37.343Z,73.4286
2022-10-17T08:09:37.381Z,73.2857
2022-10-17T08:10:37.421Z,73.0714
2022-10-17T08:11:37.455Z,73.0714
2022-10-17T08:12:37.478Z,73.0714
2022-10-17T08:13:37.508Z,73.1429
2022-10-17T08:14:37.536Z,73
2022-10-17T08:15:37.562Z,73
2022-10-17T08:16:37.646Z,72.9286
2022-10-17T08:17:37.633Z,72.7857
2022-10-17T08:18:37.660Z,72.6429
2022-10-17T08:19:37.696Z,72.7857
2022-10-17T08:20:37.728Z,72.5714
2022-10-17T08:21:37.759Z,72.3571
2022-10-17T08:22:37.795Z,72.3571
2022-10-17T08:23:37.827Z,72.4286
2022-10-17T08:24:37.859Z,72.4286
2022-10-17T08:25:37.891Z,72.2857
2022-10-17T08:26:42.374Z,72.2143
2022-10-17T08:27:37.952Z,72
2022-10-17T08:28:38.053Z,71.8571
2022-10-17T08:29:38.017Z,71.9286
2022-10-17T08:30:38.058Z,72
2022-10-17T08:31:38.087Z,71.7143
2022-10-17T08:32:38.124Z,71.5714
2022-10-17T08:33:38.150Z,71.5714
2022-10-17T08:34:38.186Z,71.7857
2022-10-17T08:35:38.220Z,71.5714
2022-10-17T08:36:38.249Z,71.4286
2022-10-17T08:37:38.281Z,71.3571
2022-10-17T08:38:41.437Z,71.1429
2022-10-17T08:39:38.345Z,71
2022-10-17T08:40:38.386Z,70.9286
2022-10-17T08:41:38.405Z,70.8571
2022-10-17T08:42:38.438Z,70.6429
2022-10-17T08:43:38.469Z,70.5
2022-10-17T08:44:38.508Z,70.4286
2022-10-17T08:45:38.536Z,70.4286
2022-10-17T08:46:38.570Z,70.4286
2022-10-17T08:47:38.604Z,70.5
2022-10-17T08:48:38.635Z,70.6429
2022-10-17T08:49:38.665Z,70.5
2022-10-17T08:50:38.696Z,70.3571
2022-10-17T08:51:38.726Z,70.2857
2022-10-17T08:52:38.766Z,70
2022-10-17T08:53:38.779Z,70.0714
2022-10-17T08:54:38.833Z,70.0714
2022-10-17T08:55:41.445Z,70
2022-10-17T08:56:48.907Z,69.9286
2022-10-17T08:57:38.918Z,69.7857
2022-10-17T08:58:38.954Z,69.6429
2022-10-17T08:59:38.973Z,69.6429
2022-10-17T09:00:39.010Z,69.7857
2022-10-17T09:01:39.033Z,69.7143
2022-10-17T09:02:39.111Z,69.6429
2022-10-17T09:03:39.099Z,69.3571
2022-10-17T09:04:39.128Z,69.0714
2022-10-17T09:05:39.159Z,69
2022-10-17T09:06:39.189Z,69.1429
2022-10-17T09:07:39.223Z,69.2143
2022-10-17T09:08:39.265Z,69.0714
2022-10-17T09:09:39.292Z,68.9286
2022-10-17T09:10:39.318Z,68.9286
2022-10-17T09:11:39.350Z,68.7143
2022-10-17T09:12:39.379Z,68.7143
2022-10-17T09:13:39.411Z,68.7143
2022-10-17T09:14:39.445Z,68.7143
2022-10-17T09:15:39.472Z,68.6429
2022-10-17T09:16:39.502Z,68.7143
2022-10-17T09:17:39.540Z,68.5714
2022-10-17T09:18:39.570Z,68.2143
2022-10-17T09:19:39.600Z,68.4286
2022-10-17T09:20:39.642Z,68.3571
2022-10-17T09:21:39.670Z,68.4286
2022-10-17T09:22:39.707Z,68.2143
2022-10-17T09:23:41.834Z,68
2022-10-17T09:24:39.759Z,67.7143
2022-10-17T09:25:39.803Z,67.6429
2022-10-17T09:26:39.833Z,67.2143
2022-10-17T09:27:39.873Z,67.5
2022-10-17T09:28:39.941Z,67.7857
2022-10-17T09:29:43.716Z,67.7143
2022-10-17T09:30:45.085Z,67.5
2022-10-17T09:31:39.995Z,67.8571
2022-10-17T09:32:40.026Z,67.7857
2022-10-17T09:34:40.093Z,67.5
2022-10-17T09:35:40.118Z,67.5
2022-10-17T09:36:40.156Z,67.5714
2022-10-17T09:37:40.191Z,67.3571
2022-10-17T09:38:40.229Z,67.2143
2022-10-17T09:39:40.260Z,66.7857
2022-10-17T09:40:40.301Z,66.8571
2022-10-17T09:41:45.511Z,66.9286
2022-10-17T09:42:40.361Z,66.5714
2022-10-17T09:43:40.391Z,66.5714
2022-10-17T09:44:40.427Z,66.9286
2022-10-17T09:45:40.462Z,66.8571
2022-10-17T09:46:40.494Z,66.5
2022-10-17T09:47:40.520Z,66.5714
2022-10-17T09:48:40.602Z,66.5714
2022-10-17T09:49:40.585Z,66.6429
2022-10-17T09:50:40.607Z,66.5
2022-10-17T09:51:40.640Z,66.2143
2022-10-17T09:52:40.675Z,66.2857
2022-10-17T09:53:40.703Z,65.7857
2022-10-17T09:54:40.732Z,66.0714
2022-10-17T09:55:40.765Z,66.2143
2022-10-17T09:56:40.802Z,66.1429
2022-10-17T09:57:40.829Z,66.2143
2022-10-17T09:58:40.864Z,65.9286
2022-10-17T09:59:40.899Z,65.4286
2022-10-17T10:00:40.971Z,65
2022-10-17T10:01:40.956Z,64.7143
2022-10-17T10:02:40.995Z,64.3571
2022-10-17T10:03:41.029Z,64.2857
2022-10-17T10:05:41.087Z,64.9286
2022-10-17T10:06:41.117Z,64.4286
2022-10-17T10:07:41.146Z,64.2143
2022-10-17T10:08:41.177Z,63.8571
2022-10-17T10:09:41.209Z,63.9286
2022-10-17T10:10:41.239Z,63.7143
2022-10-17T10:11:41.274Z,62.5714
2022-10-17T10:12:41.289Z,62.3571
2022-10-17T10:13:41.317Z,62.7857
2022-10-17T10:14:42.721Z,62.7143
2022-10-17T10:15:41.374Z,62.2143
2022-10-17T10:16:41.411Z,62.2857
2022-10-17T10:17:41.436Z,62.0714
2022-10-17T10:18:41.466Z,62.3571
2022-10-17T10:19:41.501Z,61.8571
2022-10-17T10:20:41.530Z,61.8571
2022-10-17T10:21:44.007Z,61.9286
2022-10-17T10:22:41.595Z,61.5714
2022-10-17T10:23:41.622Z,61.5
2022-10-17T10:24:41.658Z,61.7857
2022-10-17T10:25:41.693Z,61.5714
2022-10-17T10:26:41.729Z,60.7143
2022-10-17T10:27:41.759Z,60.7857
2022-10-17T10:28:41.838Z,61.2857
2022-10-17T10:29:41.816Z,60.7857
2022-10-17T10:30:41.845Z,60.7857
2022-10-17T10:31:41.878Z,60.8571
2022-10-17T10:32:41.904Z,60.2857
2022-10-17T10:33:41.941Z,59.5
2022-10-17T10:34:41.977Z,60.2143
2022-10-17T10:35:42.009Z,60.7857
2022-10-17T10:36:42.059Z,60.8571
2022-10-17T10:37:42.078Z,60.2857
2022-10-17T10:38:42.123Z,60.3571
2022-10-17T10:39:42.150Z,60.5
2022-10-17T10:40:42.174Z,60.3571
2022-10-17T10:41:42.201Z,59.5714
2022-10-17T10:42:42.228Z,59.2857
2022-10-17T10:43:42.261Z,58.8571
2022-10-17T10:44:42.286Z,59.2143
2022-10-17T10:45:48.100Z,59.0714
2022-10-17T10:46:42.347Z,59.4286
2022-10-17T10:47:42.379Z,59.4286
2022-10-17T10:48:42.400Z,59.2857
2022-10-17T10:49:42.438Z,58.4286
2022-10-17T10:50:45.308Z,58.5714
2022-10-17T10:51:42.497Z,58.7143
2022-10-17T10:52:42.533Z,58
2022-10-17T10:53:42.553Z,57.6429
2022-10-17T10:54:42.591Z,58.1429
2022-10-17T10:55:42.616Z,57.8571
2022-10-17T10:56:42.643Z,58.2857
2022-10-17T10:57:42.680Z,58.7857
2022-10-17T10:58:43.048Z,58.7857
2022-10-17T10:59:42.736Z,57.7143
2022-10-17T11:00:42.822Z,58.2143
2022-10-17T11:01:42.804Z,57.3571
2022-10-17T11:02:42.836Z,57
2022-10-17T11:03:42.880Z,56.7857
2022-10-17T11:04:42.907Z,56.9286
2022-10-17T11:05:42.941Z,57
2022-10-17T11:06:42.968Z,57.2857
2022-10-17T11:07:43.002Z,58
2022-10-17T11:08:43.034Z,57.5
2022-10-17T11:09:43.069Z,57.2857
2022-10-17T11:10:43.131Z,57.0714
2022-10-17T11:11:43.138Z,56.5
2022-10-17T11:13:43.200Z,56.5714
2022-10-17T11:14:43.229Z,56.9286
2022-10-17T11:15:43.263Z,56.5714
2022-10-17T11:16:43.304Z,56.5714
2022-10-17T11:17:43.349Z,56.2857
2022-10-17T11:18:43.367Z,56.2143
2022-10-17T11:19:43.399Z,55.8571
2022-10-17T11:20:43.437Z,56.3571
2022-10-17T11:21:43.468Z,56.5714
2022-10-17T11:22:43.504Z,56.7143
2022-10-17T11:23:43.549Z,56.7857
2022-10-17T11:24:43.578Z,56.8571
2022-10-17T11:25:43.611Z,57.0714
2022-10-17T11:26:43.648Z,56.4286
2022-10-17T11:27:43.678Z,56.2857
2022-10-17T11:28:43.785Z,56.3571
2022-10-17T11:29:43.752Z,56.1429
2022-10-17T11:31:43.820Z,56.3571
2022-10-17T11:32:43.842Z,56.3571
2022-10-17T11:33:43.879Z,55.9286
2022-10-17T11:34:43.901Z,56.0714
2022-10-17T11:35:43.940Z,56
2022-10-17T11:36:43.962Z,55.0714
2022-10-17T11:37:47.055Z,55.2143
2022-10-17T11:38:44.017Z,56.0714
2022-10-17T11:39:44.049Z,56.2857
2022-10-17T11:40:44.089Z,56.2857
2022-10-17T11:41:44.115Z,55.9286
2022-10-17T11:42:44.149Z,56.1429
2022-10-17T11:43:44.180Z,56.4286
2022-10-17T11:44:44.212Z,56.0714
2022-10-17T11:45:44.237Z,56.7143
2022-10-17T11:46:44.265Z,56.2857
2022-10-17T11:47:44.294Z,56.2143
2022-10-17T11:48:44.328Z,56.8571
2022-10-17T11:49:46.001Z,56.7143
2022-10-17T11:52:01.662Z,55.8571
2022-10-17T11:52:56.098Z,55.9286
2022-10-17T11:53:44.483Z,55.9286
2022-10-17T11:54:44.526Z,55.3571
2022-10-17T11:55:44.560Z,55.5714
2022-10-17T11:56:44.593Z,55.7857
2022-10-17T11:57:44.625Z,55.3571
2022-10-17T11:58:44.648Z,55.3571
2022-10-17T11:59:44.693Z,55.1429
2022-10-17T12:00:47.547Z,55
2022-10-17T12:01:44.748Z,54.2857
2022-10-17T12:02:44.788Z,55.1429
2022-10-17T12:03:44.812Z,55.3571
2022-10-17T12:04:49.254Z,55.2857
2022-10-17T12:05:44.880Z,54.2857
2022-10-17T12:06:44.909Z,54.0714
2022-10-17T12:07:44.939Z,54.2857
2022-10-17T12:08:44.973Z,54.8571
2022-10-17T12:09:45.003Z,54.7143
2022-10-17T12:10:45.035Z,55
2022-10-17T12:11:45.075Z,54.7143
2022-10-17T12:12:45.103Z,54.5714
2022-10-17T12:13:45.131Z,54.6429
2022-10-17T12:14:45.172Z,53.6429
2022-10-17T12:15:46.718Z,53.2857
2022-10-17T12:16:45.231Z,53.4286
2022-10-17T12:17:45.248Z,53.9286
2022-10-17T12:18:45.282Z,53.3571
2022-10-17T12:19:45.304Z,53.0714
2022-10-17T12:20:45.341Z,53.4286
2022-10-17T12:21:45.364Z,53.4286
2022-10-17T12:22:45.397Z,53.4286
2022-10-17T12:23:45.429Z,53.5714
2022-10-17T12:24:45.469Z,52.8571
2022-10-17T12:25:45.509Z,53.2143
2022-10-17T12:26:45.528Z,53.5
2022-10-17T12:27:45.559Z,53.3571
2022-10-17T12:28:45.640Z,53.7143
2022-10-17T12:29:45.628Z,53.5714
2022-10-17T12:30:45.659Z,53.5